الصفحة الرئيسية
METAR-TAF:

METAR-TAF

مطار :

تشيليابينسك, روسيا

دائرة عرض: 55-10N, خط طول: 061-24E, ارتفاع: 234 متر

مراقبة الطقس الحالي

تاريخ ووقت الإصدار 25 دقيقة قبل الساعة 15:30UTC
ريح 4 عقدة من الشمال/الشمال الغربي
درجة الحرارة -6°درجة مئوية
الرطوبة 86%
ضغط 1032 hPa
الرؤية 10 كم أو أكثر
غيوم مفككة على ارتفاع 2000 قدم, مزنة ركامية.

METAR: USCC 011530Z 34002MPS 9999 BKN020CB M06/M08 Q1032 R27/420550 NOSIG RMK QFE754

زمن: 20:55 (15:55 UTC)

توقعات

تاريخ ووقت الإصدار 2ساعات و 0 دقيقة قبل الساعة 13:55UTC
التوقعات صالحة من01 الساعة 15 UTC إلى 02 الساعة 15 UTC
ريح 6 عقدة من الشمال الشرقي تتزايد حتى 16 عقدة
الرؤية 10 كم أو أكثر
غيوم مفككة على ارتفاع 2000 قدم
مؤقت
من 01 الساعة 15 UTC إلى 02 الساعة 15 UTC
غيوم مفككة على ارتفاع 1600 قدم, مزنة ركامية.
زخات ثلجية خفيفة,

TAF: USCC 011355Z 0115/0215 04003G08MPS 9999 BKN020 TEMPO 0115/0215 -SHSN BKN016CB

أرصاد الطقس والتوقعات من أكثر من 4000 مطار (تقارير الطقس للمطار METAR والتنبؤ بالطقس بالمطارTAF).

المحطات المتاحة هي النقط الصفراء والحمراء على الخريطة.

حرك المؤشر فوق النقطة لمعرفة اسم المحطة.

ثم انقر لمعرفة أرصاد وتوقعات الطقس.

لتغيير الخارطة: اضغط على الأزرار الخضراء مع رمز الصليب الأسود للتكبير. على الزر الأخضر مع شرطة للتصغير، أو على الأسهم الخضراء للخرائط المجاورة.


METAR-TAF: